Time;durP1;ratioP1;P1;durP2;ratioP2;P2;SDS_P1;SDS_P2;PMS_P1;PMS_P2;Temp;Humidity;BMP_temperature;BMP_pressure;BME280_temperature;BME280_humidity;BME280_pressure;Samples;Min_cycle;Max_cycle;Signal;HPM_P1;HPM_P2
2021/11/14 00:02:24;;;;;;;117.88;32.20;;;;;;;8.91;100.00;98760.75;5138830;27;20162;-94
2021/11/14 00:04:50;;;;;;;147.65;30.65;;;;;;;8.80;100.00;98727.38;5138047;27;20186;-94
2021/11/14 00:07:17;;;;;;;98.03;29.05;;;;;;;8.89;100.00;98736.03;5138085;27;20134;-93
2021/11/14 00:09:43;;;;;;;108.70;29.48;;;;;;;8.91;100.00;98740.38;5137702;27;20047;-93
2021/11/14 00:12:12;;;;;;;116.88;31.00;;;;;;;8.96;100.00;98757.09;5138086;27;20360;-93
2021/11/14 00:14:38;;;;;;;113.38;28.45;;;;;;;8.73;100.00;98717.78;5137732;27;20043;-93
2021/11/14 00:17:05;;;;;;;134.80;29.27;;;;;;;8.83;100.00;98735.25;5137995;27;20100;-94
2021/11/14 00:19:34;;;;;;;181.80;32.17;;;;;;;8.70;100.00;98720.50;5138546;27;20043;-94
2021/11/14 00:22:00;;;;;;;104.28;29.35;;;;;;;8.93;100.00;98740.38;5127326;27;20044;-93
2021/11/14 00:24:25;;;;;;;135.63;29.40;;;;;;;8.98;100.00;98738.50;5129104;27;20135;-93
2021/11/14 00:26:51;;;;;;;142.75;29.40;;;;;;;9.02;100.00;98737.50;5120110;27;20039;-93
2021/11/14 00:29:19;;;;;;;157.82;30.60;;;;;;;8.79;100.00;98706.19;5117136;27;20102;-94
2021/11/14 00:31:45;;;;;;;136.75;29.67;;;;;;;8.91;100.00;98739.53;5116386;28;20044;-93
2021/11/14 00:34:11;;;;;;;219.93;30.48;;;;;;;8.94;100.00;98720.91;5117115;28;20061;-94
2021/11/14 00:36:41;;;;;;;183.55;28.92;;;;;;;9.00;100.00;98737.56;5128415;27;20043;-93
2021/11/14 00:39:09;;;;;;;126.80;26.75;;;;;;;8.74;100.00;98700.09;5137153;27;20039;-93
2021/11/14 00:41:36;;;;;;;234.60;32.45;;;;;;;8.86;100.00;98712.25;5137474;27;20035;-94
2021/11/14 00:44:02;;;;;;;197.63;27.80;;;;;;;8.95;100.00;98725.28;5136951;27;20430;-94
2021/11/14 00:46:29;;;;;;;127.18;28.65;;;;;;;8.89;100.00;98718.38;5134994;27;20043;-95
2021/11/14 00:48:55;;;;;;;147.15;27.90;;;;;;;8.97;100.00;98724.34;5136623;27;20039;-93
2021/11/14 00:54:24;;;;;;;150.20;30.17;;;;;;;8.87;100.00;98719.28;5134237;27;20372;-93
2021/11/14 00:56:50;;;;;;;286.35;36.92;;;;;;;8.84;100.00;98709.59;5133502;28;20128;-94
2021/11/14 00:59:16;;;;;;;133.23;27.23;;;;;;;8.74;100.00;98703.66;5133769;28;20035;-94
2021/11/14 01:01:41;;;;;;;220.82;32.35;;;;;;;8.70;100.00;98693.13;5133475;28;20378;-94
2021/11/14 01:04:07;;;;;;;168.55;28.88;;;;;;;8.74;100.00;98705.41;5133731;28;20036;-93
2021/11/14 01:06:33;;;;;;;313.35;39.03;;;;;;;8.64;100.00;98702.06;5133917;28;20123;-94
2021/11/14 01:08:59;;;;;;;126.50;28.17;;;;;;;8.58;100.00;98696.91;5133470;28;20066;-94
2021/11/14 01:11:26;;;;;;;113.88;26.63;;;;;;;8.62;100.00;98696.78;5133588;28;20039;-94
2021/11/14 01:13:53;;;;;;;132.82;27.27;;;;;;;8.63;100.00;98697.66;5133405;28;20052;-94
2021/11/14 01:16:22;;;;;;;135.82;27.02;;;;;;;8.59;100.00;98701.31;5133547;28;20043;-94
2021/11/14 01:18:48;;;;;;;95.38;27.27;;;;;;;8.63;100.00;98698.56;5133551;28;20127;-94
2021/11/14 01:24:12;;;;;;;65.32;24.50;;;;;;;8.71;100.00;98713.41;5093362;27;20386;-93
2021/11/14 01:26:38;;;;;;;61.00;24.95;;;;;;;8.71;100.00;98693.09;5092636;28;20050;-94
2021/11/14 01:29:04;;;;;;;59.53;23.67;;;;;;;8.83;100.00;98711.41;5092540;28;20577;-92
2021/11/14 01:31:31;;;;;;;58.63;25.27;;;;;;;8.81;100.00;98707.03;5092358;28;20084;-94
2021/11/14 01:33:57;;;;;;;71.15;26.95;;;;;;;8.80;100.00;98699.97;5093536;28;20048;-94
2021/11/14 01:36:23;;;;;;;69.13;26.65;;;;;;;8.76;100.00;98696.53;5092608;28;20045;-94
2021/11/14 01:38:50;;;;;;;67.78;25.90;;;;;;;8.79;100.00;98699.09;5092508;28;20047;-94
2021/11/14 01:41:17;;;;;;;66.68;25.52;;;;;;;8.82;100.00;98691.06;5093231;28;20036;-94
2021/11/14 01:43:46;;;;;;;83.00;27.88;;;;;;;8.84;100.00;98691.91;5092564;28;20044;-94
2021/11/14 01:46:13;;;;;;;78.80;26.45;;;;;;;8.81;100.00;98692.00;5092762;28;20044;-94
2021/11/14 01:48:39;;;;;;;104.03;29.75;;;;;;;8.89;100.00;98691.84;5092663;28;20056;-93
2021/11/14 01:51:05;;;;;;;254.98;33.65;;;;;;;8.85;100.00;98695.47;5093380;28;20067;-93
2021/11/14 01:53:34;;;;;;;281.58;31.67;;;;;;;8.70;100.00;98666.63;5092944;28;20040;-95
2021/11/14 01:56:01;;;;;;;269.58;31.95;;;;;;;8.74;100.00;98666.53;5092378;28;20131;-93
2021/11/14 01:58:28;;;;;;;209.43;33.33;;;;;;;8.72;100.00;98672.75;5092428;28;20097;-95
2021/11/14 02:00:58;;;;;;;260.13;32.63;;;;;;;8.67;100.00;98664.88;5092668;28;20049;-94
2021/11/14 02:03:28;;;;;;;170.00;28.13;;;;;;;8.77;100.00;98673.53;5093209;28;20040;-93
2021/11/14 02:05:54;;;;;;;238.73;30.63;;;;;;;8.59;100.00;98651.81;5092889;28;20041;-94
2021/11/14 02:08:20;;;;;;;58.38;23.00;;;;;;;8.48;100.00;98650.28;5092536;28;20055;-94
2021/11/14 02:10:47;;;;;;;67.68;22.58;;;;;;;8.58;100.00;98678.34;5092339;28;20139;-93
2021/11/14 02:13:14;;;;;;;78.63;23.23;;;;;;;8.58;100.00;98676.56;5091424;28;20523;-93
2021/11/14 02:15:42;;;;;;;101.47;24.35;;;;;;;8.38;100.00;98663.69;5091962;28;20386;-95
2021/11/14 02:18:11;;;;;;;161.35;27.02;;;;;;;8.26;100.00;98657.75;5091893;28;20044;-94
2021/11/14 02:20:40;;;;;;;130.40;24.92;;;;;;;8.27;100.00;98670.97;5091641;28;20055;-94
2021/11/14 02:23:08;;;;;;;223.75;29.30;;;;;;;8.06;100.00;98642.25;5091236;28;20383;-94
2021/11/14 02:25:34;;;;;;;267.13;27.95;;;;;;;8.05;100.00;98654.63;5091610;28;20074;-93
2021/11/14 02:28:00;;;;;;;211.18;27.17;;;;;;;7.92;100.00;98642.50;5091877;28;20506;-94
2021/11/14 02:30:26;;;;;;;268.30;30.85;;;;;;;8.10;100.00;98670.41;5091774;28;20045;-93
2021/11/14 02:32:53;;;;;;;168.02;27.38;;;;;;;8.16;100.00;98670.31;5091915;28;20127;-94
2021/11/14 02:35:20;;;;;;;105.47;24.27;;;;;;;8.09;100.00;98650.13;5078780;28;20398;-94
2021/11/14 02:37:48;;;;;;;110.35;23.55;;;;;;;8.22;100.00;98663.13;5078236;28;20094;-95
2021/11/14 02:40:15;;;;;;;85.32;21.48;;;;;;;8.25;100.00;98659.53;5078427;28;20043;-93
2021/11/14 02:42:42;;;;;;;111.40;23.20;;;;;;;8.11;100.00;98628.03;5077835;28;20094;-93
2021/11/14 02:45:10;;;;;;;191.65;26.95;;;;;;;8.25;100.00;98645.41;5078375;28;20398;-94
2021/11/14 02:47:37;;;;;;;135.15;23.05;;;;;;;7.99;100.00;98634.41;5078482;28;20525;-93
2021/11/14 02:50:03;;;;;;;53.63;20.42;;;;;;;8.02;100.00;98622.88;5078289;28;20050;-94
2021/11/14 02:52:29;;;;;;;42.33;18.60;;;;;;;7.99;100.00;98628.25;5078348;28;20041;-93
2021/11/14 02:54:56;;;;;;;43.63;19.77;;;;;;;8.06;100.00;98637.81;5077942;28;20113;-94
2021/11/14 02:57:22;;;;;;;44.13;19.30;;;;;;;8.06;100.00;98631.66;5078143;28;20458;-94
2021/11/14 02:59:49;;;;;;;43.28;18.80;;;;;;;8.07;100.00;98623.69;5077896;28;20059;-94
2021/11/14 03:02:15;;;;;;;43.50;18.88;;;;;;;8.10;100.00;98623.63;5077647;28;20033;-94
2021/11/14 03:04:41;;;;;;;41.40;19.23;;;;;;;8.14;100.00;98624.44;5078238;28;20041;-93
2021/11/14 03:07:07;;;;;;;49.38;20.00;;;;;;;8.28;100.00;98635.63;5078329;28;20045;-93
2021/11/14 03:09:34;;;;;;;48.28;19.48;;;;;;;8.27;100.00;98628.59;5077820;28;20059;-94
2021/11/14 03:12:02;;;;;;;43.40;20.02;;;;;;;8.47;100.00;98649.41;5077181;28;20146;-94
2021/11/14 03:14:28;;;;;;;43.73;18.30;;;;;;;8.38;100.00;98621.28;5077453;28;20046;-93
2021/11/14 03:16:54;;;;;;;40.85;17.80;;;;;;;8.39;100.00;98611.56;5077372;28;20044;-95
2021/11/14 03:19:21;;;;;;;41.45;19.65;;;;;;;8.52;100.00;98636.94;5077225;28;20048;-93
2021/11/14 03:21:48;;;;;;;39.25;18.08;;;;;;;8.45;100.00;98632.66;5076735;28;20506;-95
2021/11/14 03:24:15;;;;;;;42.08;19.55;;;;;;;8.48;100.00;98632.63;5076977;28;20131;-93
2021/11/14 03:26:41;;;;;;;37.28;17.52;;;;;;;8.46;100.00;98617.63;5077105;28;20106;-93
2021/11/14 03:29:09;;;;;;;39.85;18.00;;;;;;;8.52;100.00;98618.41;5077499;28;20052;-93
2021/11/14 03:31:35;;;;;;;37.08;17.13;;;;;;;8.53;100.00;98637.81;5077512;28;20445;-94
2021/11/14 03:34:01;;;;;;;35.85;17.55;;;;;;;8.42;100.00;98622.13;5077289;28;20094;-94
2021/11/14 03:36:27;;;;;;;34.20;16.50;;;;;;;8.51;100.00;98642.28;5077094;28;20042;-94
2021/11/14 03:38:55;;;;;;;32.13;16.63;;;;;;;8.53;100.00;98637.81;5076173;28;20044;-93
2021/11/14 03:41:24;;;;;;;35.08;17.35;;;;;;;8.47;100.00;98636.16;5076481;28;20410;-93
2021/11/14 03:43:51;;;;;;;36.15;17.45;;;;;;;8.57;100.00;98647.44;5076786;28;20049;-93
2021/11/14 03:46:20;;;;;;;38.05;17.77;;;;;;;8.46;100.00;98623.81;5075286;28;20401;-94
2021/11/14 03:48:49;;;;;;;34.38;15.80;;;;;;;8.38;100.00;98616.00;5076911;28;20044;-93
2021/11/14 03:51:16;;;;;;;31.58;15.88;;;;;;;8.41;100.00;98613.31;5076774;28;20138;-94
2021/11/14 03:53:42;;;;;;;31.40;15.52;;;;;;;8.44;100.00;98620.34;5076884;28;20045;-94
2021/11/14 03:56:09;;;;;;;38.53;18.42;;;;;;;8.47;100.00;98609.66;5076588;28;20052;-95
2021/11/14 03:58:36;;;;;;;35.22;16.40;;;;;;;8.55;100.00;98617.47;5076288;28;20502;-93
2021/11/14 04:01:07;;;;;;;35.60;17.33;;;;;;;8.55;100.00;98625.41;5075734;28;20037;-94
2021/11/14 04:03:35;;;;;;;31.92;15.88;;;;;;;8.55;100.00;98615.66;5076177;28;20475;-93
2021/11/14 04:06:01;;;;;;;29.83;16.27;;;;;;;8.66;100.00;98625.19;5076218;28;20045;-94
2021/11/14 04:08:27;;;;;;;39.33;17.85;;;;;;;8.63;100.00;98628.75;5076258;28;20052;-94
2021/11/14 04:10:57;;;;;;;33.05;16.15;;;;;;;8.60;100.00;98620.88;5076302;28;20363;-95
2021/11/14 04:13:23;;;;;;;33.78;16.40;;;;;;;8.60;100.00;98620.88;5075824;28;20060;-94
2021/11/14 04:15:50;;;;;;;30.40;15.20;;;;;;;8.54;100.00;98608.59;5075498;28;20039;-95
2021/11/14 04:18:16;;;;;;;31.85;15.55;;;;;;;8.73;100.00;98616.19;5076055;28;20048;-94
2021/11/14 04:20:45;;;;;;;34.22;16.75;;;;;;;8.63;100.00;98600.47;5075958;28;20078;-92
2021/11/14 04:23:11;;;;;;;;;;;;;;;8.77;100.00;98631.97;5075733;28;20059;-94
2021/11/14 04:25:38;;;;;;;33.30;16.23;;;;;;;8.66;100.00;98612.78;5075815;28;20340;-94
2021/11/14 04:28:06;;;;;;;34.72;17.08;;;;;;;8.51;100.00;98610.47;5075925;28;20521;-93
2021/11/14 04:30:33;;;;;;;32.45;16.63;;;;;;;8.45;100.00;98621.19;5076272;28;20454;-93
2021/11/14 04:32:59;;;;;;;35.72;16.95;;;;;;;8.28;100.00;98598.53;5075842;28;20375;-94
2021/11/14 04:35:26;;;;;;;39.58;17.02;;;;;;;8.29;100.00;98592.34;5075727;28;20504;-93
2021/11/14 04:37:53;;;;;;;35.08;17.30;;;;;;;8.40;100.00;98605.38;5075572;28;20060;-95
2021/11/14 04:40:22;;;;;;;32.95;15.80;;;;;;;8.50;100.00;98608.72;5075513;28;20051;-94
2021/11/14 04:42:48;;;;;;;;;;;;;;;8.46;100.00;98607.03;5076313;28;20094;-92
2021/11/14 04:45:14;;;;;;;35.20;15.18;;;;;;;8.44;100.00;98609.72;5075113;28;19923;-92
2021/11/14 04:47:40;;;;;;;30.45;14.98;;;;;;;8.46;100.00;98617.63;5075580;28;20066;-93
2021/11/14 04:50:09;;;;;;;28.52;14.32;;;;;;;8.34;100.00;98589.59;5075440;28;20036;-94
2021/11/14 04:52:35;;;;;;;30.55;15.48;;;;;;;8.35;100.00;98601.91;5075902;28;20051;-94
2021/11/14 04:55:03;;;;;;;31.38;15.65;;;;;;;8.40;100.00;98624.81;5075829;28;20524;-94
2021/11/14 04:57:29;;;;;;;26.27;14.23;;;;;;;8.33;100.00;98609.91;5075037;28;20044;-94
2021/11/14 04:59:55;;;;;;;33.17;15.77;;;;;;;8.33;100.00;98603.75;5075263;28;20502;-93
2021/11/14 05:02:21;;;;;;;28.95;14.85;;;;;;;8.46;100.00;98618.53;5074756;28;20094;-94
2021/11/14 05:04:47;;;;;;;29.45;15.05;;;;;;;8.43;100.00;98610.63;5075243;28;20466;-94
2021/11/14 05:07:14;;;;;;;31.38;15.38;;;;;;;8.32;100.00;98592.25;5075414;28;20102;-93
2021/11/14 05:09:40;;;;;;;30.98;15.32;;;;;;;8.45;100.00;98619.41;5074968;28;20119;-94
2021/11/14 05:12:08;;;;;;;31.27;15.32;;;;;;;8.55;100.00;98625.41;5075236;28;20159;-95
2021/11/14 05:14:34;;;;;;;30.90;15.27;;;;;;;8.53;100.00;98630.72;5075313;28;20072;-94
2021/11/14 05:17:00;;;;;;;32.40;15.68;;;;;;;8.41;100.00;98605.38;5075173;28;20121;-94
2021/11/14 05:19:26;;;;;;;27.92;14.77;;;;;;;8.42;100.00;98616.84;5074879;28;20045;-94
2021/11/14 05:21:52;;;;;;;32.70;14.90;;;;;;;8.43;100.00;98624.72;5074898;28;20043;-94
2021/11/14 05:24:18;;;;;;;28.00;14.40;;;;;;;8.41;100.00;98626.56;5075080;28;20072;-94
2021/11/14 05:26:46;;;;;;;29.33;14.43;;;;;;;8.29;100.00;98615.31;5075096;28;20090;-95
2021/11/14 05:29:13;;;;;;;33.30;14.90;;;;;;;8.34;100.00;98627.53;5075299;28;20491;-93
2021/11/14 05:31:39;;;;;;;31.40;15.35;;;;;;;8.28;100.00;98625.03;5075114;28;20093;-94
2021/11/14 05:34:05;;;;;;;31.67;15.45;;;;;;;8.11;100.00;98603.28;5074774;28;20041;-94
2021/11/14 05:36:31;;;;;;;28.30;14.93;;;;;;;8.13;100.00;98620.94;5075022;28;20048;-93
2021/11/14 05:38:57;;;;;;;29.63;15.30;;;;;;;8.05;100.00;98603.44;5074959;28;20044;-94
2021/11/14 05:41:23;;;;;;;36.35;16.48;;;;;;;8.16;100.00;98623.50;5074769;28;20045;-92
2021/11/14 05:43:48;;;;;;;36.10;15.18;;;;;;;8.12;100.00;98621.81;5074622;28;20062;-94
2021/11/14 05:46:19;;;;;;;33.65;15.77;;;;;;;8.08;100.00;98622.78;5074627;28;20049;-92
2021/11/14 05:48:45;;;;;;;32.72;16.27;;;;;;;8.07;100.00;98622.78;5075046;28;20036;-94
2021/11/14 05:51:11;;;;;;;32.85;15.60;;;;;;;7.99;100.00;98623.81;5074705;28;20090;-93
2021/11/14 05:53:37;;;;;;;35.53;16.10;;;;;;;7.94;100.00;98625.69;5075770;28;20052;-94
2021/11/14 05:56:03;;;;;;;31.40;15.27;;;;;;;7.92;100.00;98621.34;5075053;28;20132;-93
2021/11/14 06:07:12;;;;;;;63.75;16.10;;;;;;;8.19;100.00;98630.50;5111485;27;20373;-93
2021/11/14 06:09:38;;;;;;;103.32;17.98;;;;;;;8.07;100.00;98609.56;5095190;28;20090;-94
2021/11/14 06:12:05;;;;;;;134.00;20.52;;;;;;;7.91;100.00;98619.56;5093579;28;20048;-93
2021/11/14 06:14:34;;;;;;;42.58;16.80;;;;;;;7.88;100.00;98617.00;5092539;28;20063;-94
2021/11/14 06:17:00;;;;;;;34.25;17.63;;;;;;;7.72;100.00;98589.91;5092735;28;20100;-94
2021/11/14 06:19:26;;;;;;;34.88;16.20;;;;;;;7.81;100.00;98618.88;5092799;28;20048;-93
2021/11/14 06:21:52;;;;;;;45.58;16.70;;;;;;;7.74;100.00;98611.94;5093088;28;20044;-94
2021/11/14 06:24:20;;;;;;;37.60;16.88;;;;;;;7.67;100.00;98610.31;5094169;28;20044;-95
2021/11/14 06:26:46;;;;;;;41.08;17.30;;;;;;;7.82;100.00;98647.09;5092792;28;20040;-94
2021/11/14 06:29:12;;;;;;;37.53;17.02;;;;;;;7.86;100.00;98648.78;5092933;28;20050;-95
2021/11/14 06:31:38;;;;;;;37.83;17.58;;;;;;;7.86;100.00;98654.06;5093453;28;20071;-95
2021/11/14 06:34:04;;;;;;;42.28;17.23;;;;;;;7.76;100.00;98616.31;5092705;28;20048;-93
2021/11/14 06:36:30;;;;;;;42.92;17.55;;;;;;;7.79;100.00;98616.25;5093385;28;20132;-94
2021/11/14 06:38:56;;;;;;;67.00;19.40;;;;;;;7.82;100.00;98624.13;5092634;28;20062;-92
2021/11/14 06:41:23;;;;;;;64.47;18.65;;;;;;;8.02;100.00;98647.63;5092346;28;20040;-93
2021/11/14 06:43:49;;;;;;;68.00;18.95;;;;;;;7.92;100.00;98627.50;5092179;28;20672;-94
2021/11/14 06:46:16;;;;;;;65.95;16.85;;;;;;;7.83;100.00;98617.09;5092533;28;20076;-94
2021/11/14 06:48:42;;;;;;;41.53;15.32;;;;;;;7.94;100.00;98631.00;5092443;28;20044;-95
2021/11/14 06:51:08;;;;;;;38.78;15.68;;;;;;;8.02;100.00;98630.81;5092305;28;20056;-92
2021/11/14 06:53:34;;;;;;;35.42;16.58;;;;;;;8.06;100.00;98643.13;5092039;28;20066;-95
2021/11/14 06:56:00;;;;;;;36.45;18.30;;;;;;;7.95;100.00;98635.38;5092548;28;20052;-94
2021/11/14 06:58:28;;;;;;;49.45;18.85;;;;;;;8.01;100.00;98643.19;5092306;28;20044;-93
2021/11/14 07:00:54;;;;;;;44.75;19.40;;;;;;;8.07;100.00;98651.91;5092300;28;20055;-93
2021/11/14 07:03:20;;;;;;;46.30;19.95;;;;;;;8.03;100.00;98633.47;5092455;28;20136;-93
2021/11/14 07:05:46;;;;;;;47.08;20.83;;;;;;;8.03;100.00;98624.66;5091516;28;20047;-94
2021/11/14 07:08:12;;;;;;;42.90;19.42;;;;;;;8.05;100.00;98617.53;5091672;28;20072;-93
2021/11/14 07:10:38;;;;;;;42.47;17.98;;;;;;;8.15;100.00;98634.13;5091813;28;20450;-93
2021/11/14 07:13:04;;;;;;;40.20;19.20;;;;;;;8.25;100.00;98646.28;5092279;28;20473;-94
2021/11/14 07:15:31;;;;;;;31.73;17.00;;;;;;;8.34;100.00;98651.41;5091341;28;20036;-93
2021/11/14 07:17:57;;;;;;;31.88;15.85;;;;;;;8.40;100.00;98640.72;5081197;28;20117;-94
2021/11/14 07:20:23;;;;;;;33.15;16.63;;;;;;;8.42;100.00;98648.63;5077948;28;20068;-94
2021/11/14 07:22:49;;;;;;;39.17;16.40;;;;;;;8.42;100.00;98638.03;5078027;28;20049;-93
2021/11/14 07:25:19;;;;;;;32.22;15.90;;;;;;;8.33;100.00;98619.66;5078156;28;20501;-94
2021/11/14 07:27:47;;;;;;;27.08;14.68;;;;;;;8.47;100.00;98645.88;5079182;28;20052;-94
2021/11/14 07:30:14;;;;;;;31.45;15.90;;;;;;;8.41;100.00;98629.22;5078509;28;20048;-95
2021/11/14 07:32:42;;;;;;;30.17;15.38;;;;;;;8.43;100.00;98632.69;5077649;28;20540;-95
2021/11/14 07:35:09;;;;;;;30.95;15.85;;;;;;;8.51;100.00;98636.97;5078059;28;20161;-93
2021/11/14 07:37:35;;;;;;;30.42;15.85;;;;;;;8.60;100.00;98642.94;5077450;28;20464;-93
2021/11/14 07:40:01;;;;;;;33.40;15.40;;;;;;;8.53;100.00;98632.50;5078288;28;20045;-94
2021/11/14 07:42:27;;;;;;;31.48;15.75;;;;;;;8.46;100.00;98623.81;5078143;28;20398;-93
2021/11/14 07:44:53;;;;;;;38.58;17.02;;;;;;;8.60;100.00;98650.03;5078280;28;20045;-93
2021/11/14 07:47:19;;;;;;;40.03;19.10;;;;;;;8.55;100.00;98628.91;5077585;28;20056;-92
2021/11/14 07:49:46;;;;;;;42.67;21.08;;;;;;;8.59;100.00;98625.31;5077671;28;20414;-94
2021/11/14 07:52:12;;;;;;;45.17;19.77;;;;;;;8.81;100.00;98646.91;5077427;28;20367;-94
2021/11/14 07:54:38;;;;;;;47.45;23.13;;;;;;;8.84;100.00;98624.75;5077252;28;20095;-94
2021/11/14 07:57:05;;;;;;;51.45;23.85;;;;;;;9.11;100.00;98623.28;5076982;28;20094;-93
2021/11/14 07:59:31;;;;;;;48.15;23.30;;;;;;;9.52;100.00;98644.38;5076901;28;20044;-93
2021/11/14 08:01:57;;;;;;;37.65;20.17;;;;;;;9.63;100.00;98629.94;5076632;28;20043;-93
2021/11/14 08:04:23;;;;;;;41.45;20.35;;;;;;;9.85;100.00;98627.59;5076486;28;20397;-93
2021/11/14 08:06:51;;;;;;;30.92;16.05;;;;;;;10.10;99.51;98637.56;5076871;28;20090;-94
2021/11/14 08:09:16;;;;;;;32.85;16.50;;;;;;;10.32;98.81;98639.66;5083413;28;20032;-93
2021/11/14 08:11:42;;;;;;;27.15;14.68;;;;;;;10.48;97.27;98636.53;5080383;28;20044;-92
2021/11/14 08:14:08;;;;;;;29.67;16.02;;;;;;;10.60;95.85;98645.91;5077266;28;20044;-93
2021/11/14 08:16:34;;;;;;;29.50;15.50;;;;;;;10.71;95.00;98648.25;5076351;28;20052;-92
2021/11/14 08:19:00;;;;;;;27.92;14.88;;;;;;;10.81;94.07;98646.22;5076325;28;20513;-94
2021/11/14 08:21:26;;;;;;;613.15;255.13;;;;;;;10.80;93.89;98655.09;5076510;28;20394;-93
2021/11/14 08:23:53;;;;;;;143.07;79.47;;;;;;;10.85;94.16;98672.69;5078097;28;20082;-94
2021/11/14 08:26:19;;;;;;;44.85;26.15;;;;;;;10.94;93.98;98668.00;5076781;28;20413;-93
2021/11/14 08:28:45;;;;;;;30.48;17.42;;;;;;;10.88;93.10;98656.59;5076641;28;20094;-95
2021/11/14 08:31:15;;;;;;;29.25;15.93;;;;;;;10.93;92.55;98661.81;5076580;28;20051;-93
2021/11/14 08:33:41;;;;;;;65.97;41.00;;;;;;;10.97;92.44;98668.75;5077460;28;20049;-94
2021/11/14 08:36:07;;;;;;;29.17;17.10;;;;;;;11.04;92.49;98654.38;5077056;28;20037;-93
2021/11/14 08:38:34;;;;;;;27.70;16.13;;;;;;;11.15;92.03;98651.38;5077340;28;20052;-94
2021/11/14 08:41:01;;;;;;;28.17;15.63;;;;;;;11.24;91.75;98639.56;5077809;28;20059;-94
2021/11/14 08:43:27;;;;;;;57.65;46.83;;;;;;;11.37;91.13;98648.91;5076893;28;20048;-92
2021/11/14 08:45:53;;;;;;;35.03;22.13;;;;;;;11.43;90.77;98634.53;5082785;28;20032;-93
2021/11/14 08:48:19;;;;;;;44.97;30.58;;;;;;;11.46;90.15;98637.09;5082117;28;20075;-93
2021/11/14 08:50:46;;;;;;;33.63;19.02;;;;;;;11.54;90.04;98645.69;5076488;28;20044;-93
2021/11/14 08:53:13;;;;;;;65.32;41.22;;;;;;;11.67;89.94;98639.03;5076711;28;20055;-94
2021/11/14 08:55:39;;;;;;;46.92;30.05;;;;;;;11.69;88.14;98650.50;5076970;28;20040;-93
2021/11/14 08:58:06;;;;;;;38.35;25.38;;;;;;;11.50;89.68;98636.06;5076515;28;20059;-93
2021/11/14 09:00:33;;;;;;;33.65;18.35;;;;;;;11.63;90.00;98647.19;5076115;28;20117;-93
2021/11/14 09:03:00;;;;;;;63.42;52.13;;;;;;;11.72;89.08;98652.19;5076159;28;20048;-94
2021/11/14 09:05:28;;;;;;;42.40;27.63;;;;;;;11.67;88.37;98644.38;5076786;28;20060;-94
2021/11/14 09:07:56;;;;;;;42.25;25.48;;;;;;;11.68;88.51;98640.75;5076947;28;20127;-95
2021/11/14 09:10:24;;;;;;;35.63;20.08;;;;;;;11.64;88.26;98624.94;5077630;28;20049;-95
2021/11/14 09:12:51;;;;;;;37.43;18.37;;;;;;;11.75;87.13;98624.56;5078091;28;20064;-94
2021/11/14 09:15:20;;;;;;;33.42;17.60;;;;;;;11.68;85.99;98614.13;5075969;28;20547;-94
2021/11/14 09:17:46;;;;;;;31.85;17.55;;;;;;;11.74;86.24;98639.69;5076128;28;20090;-94
2021/11/14 09:20:12;;;;;;;45.70;23.55;;;;;;;11.44;87.34;98639.78;5075787;28;20040;-94
2021/11/14 09:22:39;;;;;;;34.17;18.52;;;;;;;11.55;87.36;98638.56;5076420;28;20494;-94
2021/11/14 09:25:09;;;;;;;32.00;18.90;;;;;;;11.56;87.50;98627.88;5075619;28;20065;-94
2021/11/14 09:27:36;;;;;;;35.58;19.88;;;;;;;11.89;87.23;98649.88;5076004;28;20051;-93
2021/11/14 09:30:02;;;;;;;38.97;20.60;;;;;;;11.86;86.32;98630.41;5076126;28;20072;-94
2021/11/14 09:32:30;;;;;;;38.03;19.65;;;;;;;12.09;85.93;98650.97;5076415;28;20058;-96
2021/11/14 09:34:56;;;;;;;84.50;43.55;;;;;;;12.16;85.13;98656.94;5076651;28;20040;-94
2021/11/14 09:37:22;;;;;;;61.35;32.95;;;;;;;12.01;85.57;98627.22;5075208;28;20041;-95
2021/11/14 09:39:52;;;;;;;85.93;44.67;;;;;;;12.11;85.31;98623.31;5075125;28;20044;-94
2021/11/14 09:42:19;;;;;;;56.45;33.72;;;;;;;12.24;83.90;98622.91;5075717;28;20214;-93
2021/11/14 09:44:45;;;;;;;47.97;28.17;;;;;;;12.42;83.97;98645.34;5074763;28;20045;-93
2021/11/14 09:47:14;;;;;;;42.70;24.13;;;;;;;12.41;82.95;98636.47;5076305;28;20033;-95
2021/11/14 09:49:42;;;;;;;40.00;22.90;;;;;;;12.46;83.42;98633.66;5075390;28;20085;-95
2021/11/14 09:52:08;;;;;;;43.13;25.77;;;;;;;12.53;84.51;98646.72;5075470;28;20099;-94
2021/11/14 09:54:35;;;;;;;40.10;23.50;;;;;;;12.52;83.80;98617.41;5075831;28;20036;-94
2021/11/14 09:57:01;;;;;;;67.30;38.60;;;;;;;12.53;83.37;98614.72;5075412;28;20072;-95
2021/11/14 09:59:28;;;;;;;45.97;26.55;;;;;;;12.44;86.05;98615.03;5077560;28;20036;-96
2021/11/14 10:01:56;;;;;;;46.65;25.35;;;;;;;12.63;84.01;98614.34;5077628;28;20067;-95
2021/11/14 10:04:22;;;;;;;36.85;20.70;;;;;;;12.76;82.50;98610.28;5079280;28;20616;-95
2021/11/14 10:07:03;;;;;;;36.25;20.58;;;;;;;12.83;81.85;98619.78;5076323;28;20068;-94
2021/11/14 10:09:35;;;;;;;53.28;26.08;;;;;;;12.65;83.74;98608.03;5076734;28;20044;-94
2021/11/14 10:12:12;;;;;;;56.65;28.63;;;;;;;12.75;84.07;98600.53;5079168;28;20041;-93
2021/11/14 10:14:38;;;;;;;57.40;28.10;;;;;;;12.91;83.82;98620.34;5076920;28;20047;-95
2021/11/14 10:17:13;;;;;;;41.47;22.02;;;;;;;12.87;83.39;98594.72;5075429;28;20110;-95
2021/11/14 10:19:39;;;;;;;41.78;21.75;;;;;;;12.99;82.23;98587.16;5077282;28;20098;-95
2021/11/14 10:22:07;;;;;;;71.22;32.25;;;;;;;13.20;81.99;98601.44;5077053;28;20040;-95
2021/11/14 10:24:33;;;;;;;48.50;25.48;;;;;;;13.39;81.71;98609.63;5083436;28;20044;-96
2021/11/14 10:27:09;;;;;;;41.70;21.35;;;;;;;13.22;81.89;98575.56;5081601;28;20102;-94
2021/11/14 10:29:39;;;;;;;45.17;22.98;;;;;;;13.34;81.72;98594.66;5079847;28;20069;-94
2021/11/14 10:32:07;;;;;;;;;;;;;;;13.40;81.69;98604.19;5077456;28;20048;-94
2021/11/14 10:34:33;;;;;;;40.30;21.90;;;;;;;13.28;81.38;98594.00;5080987;28;20380;-95
2021/11/14 10:36:59;;;;;;;69.75;30.80;;;;;;;13.19;82.05;98595.25;5078742;28;20131;-94
2021/11/14 10:39:37;;;;;;;210.38;70.63;;;;;;;13.05;83.13;98570.91;5076736;28;20094;-95
2021/11/14 10:42:11;;;;;;;218.07;72.53;;;;;;;12.92;83.36;98568.75;5076941;28;20383;-95
2021/11/14 10:44:45;;;;;;;44.75;22.88;;;;;;;12.92;84.28;98574.06;5077566;28;20049;-95
2021/11/14 10:47:13;;;;;;;46.33;25.60;;;;;;;12.87;85.16;98568.03;5076705;28;20047;-94
2021/11/14 10:49:51;;;;;;;56.85;32.03;;;;;;;13.00;84.89;98575.56;5076832;28;20101;-93
2021/11/14 10:52:17;;;;;;;98.15;59.05;;;;;;;12.97;84.33;98568.53;5077556;28;20044;-93
2021/11/14 10:54:56;;;;;;;54.55;34.40;;;;;;;12.90;84.84;98562.59;5079718;28;20522;-93
2021/11/14 10:57:28;;;;;;;53.47;33.58;;;;;;;12.92;85.94;98563.41;5080992;28;20033;-94
2021/11/14 10:59:55;;;;;;;43.70;26.15;;;;;;;12.87;85.66;98549.34;5080223;28;20051;-95
2021/11/14 11:02:22;;;;;;;41.40;22.33;;;;;;;13.10;86.07;98576.94;5079794;28;20516;-94
2021/11/14 11:04:50;;;;;;;41.70;23.52;;;;;;;13.12;85.79;98559.06;5059178;28;20072;-94
2021/11/14 11:07:16;;;;;;;41.10;23.15;;;;;;;13.32;85.74;98574.28;5069562;28;20053;-93
2021/11/14 11:09:43;;;;;;;41.05;23.40;;;;;;;13.21;85.33;98531.97;5078896;28;20049;-94
2021/11/14 11:12:18;;;;;;;44.15;23.25;;;;;;;13.32;84.86;98547.56;5080395;28;20506;-95
2021/11/14 11:14:52;;;;;;;41.83;22.20;;;;;;;13.30;85.31;98539.63;5080930;28;20071;-95
2021/11/14 11:17:18;;;;;;;44.03;24.73;;;;;;;13.23;85.17;98530.09;5080179;28;20074;-95
2021/11/14 11:19:44;;;;;;;44.38;26.15;;;;;;;13.43;85.06;98557.81;5080711;28;20448;-93
2021/11/14 11:22:11;;;;;;;47.60;25.13;;;;;;;13.42;85.70;98554.25;5082390;28;20101;-94
2021/11/14 11:24:47;;;;;;;46.65;25.15;;;;;;;13.34;85.97;98538.56;5081497;28;20029;-95
2021/11/14 11:27:13;;;;;;;46.00;25.80;;;;;;;13.37;86.16;98536.69;5079983;28;20025;-95
2021/11/14 11:29:41;;;;;;;47.97;25.10;;;;;;;13.47;86.15;98554.94;5080294;28;20044;-95
2021/11/14 11:32:09;;;;;;;46.78;25.52;;;;;;;13.40;86.68;98547.25;5080134;28;20045;-95